Time;durP1;ratioP1;P1;durP2;ratioP2;P2;SDS_P1;SDS_P2;PMS_P1;PMS_P2;Temp;Humidity;BMP_temperature;BMP_pressure;BME280_temperature;BME280_humidity;BME280_pressure;Samples;Min_cycle;Max_cycle;Signal;HPM_P1;HPM_P2
2023/10/14 06:36:55;;;;;;;5.93;5.07;;;;;;;13.52;100.00;95117.97;7403493;19;20386;-90
2023/10/14 06:39:30;;;;;;;5.57;5.03;;;;;;;13.42;100.00;95113.38;7404432;19;20444;-89
2023/10/14 06:41:59;;;;;;;5.53;5.03;;;;;;;13.34;100.00;95106.50;7397324;19;20459;-89
2023/10/14 06:44:29;;;;;;;6.80;6.20;;;;;;;13.53;100.00;95151.34;7396768;19;20396;-90
2023/10/14 06:46:59;;;;;;;6.57;5.90;;;;;;;12.36;100.00;94971.13;7395756;19;20381;-90
2023/10/14 06:49:36;;;;;;;10.20;5.80;;;;;;;11.30;100.00;94828.19;7396320;19;20949;-89
2023/10/14 06:52:07;;;;;;;6.30;5.70;;;;;;;12.31;100.00;94974.13;7403957;19;20381;-90
2023/10/14 06:54:36;;;;;;;6.70;5.07;;;;;;;12.17;100.00;94966.09;7400540;19;20383;-91
2023/10/14 06:57:07;;;;;;;7.80;5.20;;;;;;;12.20;100.00;94968.00;7401984;19;20382;-91
2023/10/14 06:59:38;;;;;;;6.67;5.10;;;;;;;11.77;100.00;94887.50;7397579;19;20423;-91
2023/10/14 07:02:06;;;;;;;9.13;5.60;;;;;;;12.39;100.00;94994.22;7403837;19;20381;-91
2023/10/14 07:04:37;;;;;;;6.43;4.97;;;;;;;13.12;100.00;95102.22;7401187;19;20384;-91
2023/10/14 07:07:09;;;;;;;6.83;4.63;;;;;;;13.14;100.00;95108.69;7401074;19;20443;-90
2023/10/14 07:09:39;;;;;;;6.17;5.43;;;;;;;13.65;100.00;95178.72;7397464;19;20468;-91
2023/10/14 07:12:13;;;;;;;7.47;5.00;;;;;;;13.24;100.00;95123.16;7404215;19;20388;-90
2023/10/14 07:14:44;;;;;;;6.37;5.10;;;;;;;12.78;100.00;95062.63;7400125;19;20384;-90
2023/10/14 07:17:17;;;;;;;5.83;4.20;;;;;;;12.33;100.00;95000.25;7400736;19;20388;-91
2023/10/14 07:19:46;;;;;;;4.60;4.17;;;;;;;13.69;100.00;95188.22;7398687;19;20376;-90
2023/10/14 07:22:20;;;;;;;7.00;4.80;;;;;;;13.32;100.00;95144.03;7399804;19;20384;-90
2023/10/14 07:24:49;;;;;;;6.87;4.80;;;;;;;13.30;100.00;95140.25;7399882;19;20926;-90
2023/10/14 07:27:18;;;;;;;10.37;4.60;;;;;;;13.66;100.00;95210.22;7399834;19;20376;-90
2023/10/14 07:29:48;;;;;;;4.93;4.40;;;;;;;12.92;100.00;95096.41;7400054;19;20380;-91
2023/10/14 07:32:16;;;;;;;5.63;3.70;;;;;;;13.03;100.00;95089.28;7399697;19;20388;-91
2023/10/14 07:34:43;;;;;;;12.97;5.07;;;;;;;13.33;100.00;95144.81;7400350;19;20386;-90
2023/10/14 07:37:13;;;;;;;7.40;4.30;;;;;;;12.99;100.00;95091.16;7400323;19;20404;-90
2023/10/14 07:39:40;;;;;;;4.63;3.80;;;;;;;11.75;100.00;94914.34;7397404;19;20412;-90
2023/10/14 07:42:13;;;;;;;4.90;3.63;;;;;;;13.16;100.00;95122.31;7399856;19;20384;-91
2023/10/14 07:44:40;;;;;;;4.10;3.40;;;;;;;12.95;100.00;95093.81;7400578;19;20399;-90
2023/10/14 07:47:10;;;;;;;7.53;3.83;;;;;;;12.21;100.00;94974.81;7402321;19;20381;-91
2023/10/14 07:49:38;;;;;;;7.03;4.33;;;;;;;12.69;100.00;95051.59;7402799;19;20407;-91
2023/10/14 07:52:14;;;;;;;6.93;3.43;;;;;;;12.51;100.00;95008.31;7415193;19;20377;-91
2023/10/14 07:54:42;;;;;;;6.73;3.47;;;;;;;13.26;100.00;95128.84;7414931;19;20387;-91
2023/10/14 07:57:12;;;;;;;4.33;3.97;;;;;;;13.24;100.00;95115.97;7412071;19;20389;-90
2023/10/14 07:59:39;;;;;;;5.33;3.87;;;;;;;13.02;100.00;95064.63;7402489;19;20423;-91
2023/10/14 08:02:07;;;;;;;13.27;3.23;;;;;;;13.20;100.00;95104.53;7398787;19;20843;-91
2023/10/14 08:04:35;;;;;;;7.57;4.30;;;;;;;14.45;100.00;95275.06;7400408;19;20767;-91
2023/10/14 08:07:06;;;;;;;6.50;2.80;;;;;;;12.26;100.00;94944.56;7395695;19;20380;-90
2023/10/14 08:09:39;;;;;;;3.07;2.77;;;;;;;12.72;100.00;95005.78;7396807;19;20779;-91
2023/10/14 08:12:06;;;;;;;3.60;2.97;;;;;;;13.21;100.00;95084.84;7399251;19;20388;-91
2023/10/14 08:14:33;;;;;;;3.27;2.97;;;;;;;13.59;100.00;95135.81;7398844;19;20387;-91
2023/10/14 08:17:00;;;;;;;3.93;2.63;;;;;;;13.37;100.00;95119.03;7398655;19;20463;-91
2023/10/14 08:19:27;;;;;;;4.67;3.20;;;;;;;13.13;100.00;95082.50;7395765;19;20505;-91
2023/10/14 08:21:55;;;;;;;5.37;3.43;;;;;;;13.58;100.00;95172.22;7399038;19;20373;-91
2023/10/14 08:24:22;;;;;;;8.60;3.07;;;;;;;13.10;100.00;95109.81;7397815;19;20448;-91
2023/10/14 08:26:49;;;;;;;12.83;4.50;;;;;;;13.57;100.00;95165.38;7398281;19;20396;-91
2023/10/14 08:29:20;;;;;;;19.03;6.47;;;;;;;13.40;100.00;95152.06;7395956;19;20421;-91
2023/10/14 08:31:53;;;;;;;4.30;3.90;;;;;;;12.19;100.00;94952.47;7398546;19;20373;-90
2023/10/14 08:34:24;;;;;;;4.53;2.97;;;;;;;12.27;100.00;94975.97;7399585;19;20377;-91
2023/10/14 08:36:51;;;;;;;3.43;2.70;;;;;;;13.25;100.00;95116.72;7399517;19;20421;-91
2023/10/14 08:39:23;;;;;;;2.53;2.10;;;;;;;12.38;100.00;94995.34;7396681;19;20492;-91
2023/10/14 08:41:55;;;;;;;4.37;2.17;;;;;;;13.66;100.00;95177.56;7397868;19;20389;-91
2023/10/14 08:44:31;;;;;;;5.43;2.40;;;;;;;13.36;100.00;95130.03;7398175;19;20380;-91
2023/10/14 08:46:59;;;;;;;4.57;3.17;;;;;;;12.33;100.00;94993.06;7398588;19;20405;-91
2023/10/14 08:49:32;;;;;;;5.10;2.93;;;;;;;12.80;100.00;95060.34;7396070;19;20764;-91
2023/10/14 08:52:04;;;;;;;7.23;4.43;;;;;;;13.16;100.00;95103.00;7398486;19;20379;-92
2023/10/14 08:54:32;;;;;;;5.43;2.47;;;;;;;13.58;100.00;95163.50;7398500;19;20448;-91
2023/10/14 08:57:00;;;;;;;5.90;1.87;;;;;;;14.03;100.00;95212.63;7398124;19;20392;-91
2023/10/14 08:59:27;;;;;;;4.90;3.37;;;;;;;13.82;100.00;95170.03;7396516;19;20418;-91
2023/10/14 09:01:56;;;;;;;6.20;2.30;;;;;;;13.03;100.00;95055.53;7415163;19;20380;-91
2023/10/14 09:04:28;;;;;;;2.83;2.10;;;;;;;14.49;100.00;95276.56;7427851;19;20376;-92
2023/10/14 09:07:03;;;;;;;2.57;2.20;;;;;;;14.27;100.00;95219.13;7418472;19;20416;-91
2023/10/14 09:09:32;;;;;;;2.57;2.37;;;;;;;13.90;100.00;95167.03;7396408;19;20411;-91
2023/10/14 09:12:11;;;;;;;3.17;2.87;;;;;;;13.17;100.00;95059.41;7397217;19;20401;-91
2023/10/14 09:14:40;;;;;;;4.93;2.33;;;;;;;13.90;100.00;95168.94;7398038;19;20927;-91
2023/10/14 09:17:08;;;;;;;4.00;2.67;;;;;;;14.43;100.00;95262.09;7397932;19;20380;-90
2023/10/14 09:19:48;;;;;;;2.73;2.30;;;;;;;12.51;100.00;94974.59;7394160;19;20400;-92
2023/10/14 09:22:20;;;;;;;2.23;1.80;;;;;;;13.93;100.00;95173.50;7397113;19;20424;-91
2023/10/14 09:24:50;;;;;;;2.53;2.33;;;;;;;12.90;100.00;95046.41;7400585;19;20397;-91
2023/10/14 09:27:19;;;;;;;10.93;5.50;;;;;;;13.37;100.00;95076.56;7398097;19;20417;-91
2023/10/14 09:29:47;;;;;;;25.73;7.60;;;;;;;14.11;100.00;95187.56;7400149;19;20801;-91
2023/10/14 09:32:15;;;;;;;5.80;3.43;;;;;;;12.88;100.00;95029.34;7398886;19;20906;-91
2023/10/14 09:34:43;;;;;;;4.97;2.37;;;;;;;13.55;100.00;95344.84;7397988;19;20427;-91
2023/10/14 09:37:10;;;;;;;2.07;1.57;;;;;;;11.89;100.00;95122.94;7398751;19;20387;-91
2023/10/14 09:39:44;;;;;;;4.20;1.70;;;;;;;12.82;100.00;95299.50;7394753;19;20493;-91
2023/10/14 09:42:15;;;;;;;1.67;1.10;;;;;;;11.79;100.00;95164.06;7398223;19;21142;-91
2023/10/14 09:44:43;;;;;;;3.00;2.03;;;;;;;12.05;100.00;95188.91;7396878;19;20405;-91
2023/10/14 09:47:14;;;;;;;2.53;1.60;;;;;;;12.65;100.00;95244.38;7397785;19;20396;-91
2023/10/14 09:49:44;;;;;;;2.27;1.67;;;;;;;12.08;100.00;95151.84;7397892;19;20412;-91
2023/10/14 09:52:14;;;;;;;2.90;1.77;;;;;;;11.93;100.00;95174.03;7398446;19;20381;-92
2023/10/14 09:54:49;;;;;;;3.10;1.17;;;;;;;12.32;100.00;95200.16;7399843;19;20934;-91
2023/10/14 09:57:20;;;;;;;1.30;1.20;;;;;;;11.94;100.00;95148.31;7395561;19;20392;-91
2023/10/14 09:59:50;;;;;;;3.03;1.30;;;;;;;12.17;100.00;95209.09;7395599;19;20921;-92
2023/10/14 10:02:18;;;;;;;2.40;1.20;;;;;;;13.01;100.00;95333.00;7397776;19;20392;-91
2023/10/14 10:04:48;;;;;;;1.63;1.20;;;;;;;13.31;100.00;95346.16;7394909;19;20855;-91
2023/10/14 10:07:42;;;;;;;1.73;1.30;;;;;;;12.70;100.00;95258.09;7399111;19;20392;-91
2023/10/14 10:10:17;;;;;;;3.57;2.37;;;;;;;13.72;100.00;95399.22;7398398;19;20396;-91
2023/10/14 10:12:53;;;;;;;5.30;2.17;;;;;;;11.61;100.00;95078.34;7397254;19;20388;-91
2023/10/14 10:15:21;;;;;;;4.30;1.20;;;;;;;12.91;100.00;95252.19;7398731;19;20397;-92
2023/10/14 10:18:06;;;;;;;1.23;1.10;;;;;;;12.52;100.00;95180.25;7396915;19;20749;-92
2023/10/14 10:20:36;;;;;;;1.67;1.30;;;;;;;12.92;100.00;95235.13;7398485;19;20397;-92
2023/10/14 10:23:06;;;;;;;3.57;1.23;;;;;;;12.10;100.00;95151.50;7397325;19;20477;-92
2023/10/14 10:25:37;;;;;;;2.20;1.27;;;;;;;13.82;100.00;95409.91;7398800;19;20381;-92
2023/10/14 10:28:26;;;;;;;1.67;1.50;;;;;;;13.85;100.00;95416.38;7397053;19;20488;-91
2023/10/14 10:31:04;;;;;;;2.40;1.23;;;;;;;12.73;100.00;95267.97;7394793;19;20397;-92
2023/10/14 10:33:59;;;;;;;2.40;1.43;;;;;;;13.66;100.00;95417.41;7398522;19;20455;-92
2023/10/14 10:36:29;;;;;;;1.30;1.10;;;;;;;12.47;100.00;95217.72;7397718;19;20448;-92
2023/10/14 10:39:16;;;;;;;2.90;1.30;;;;;;;12.16;100.00;95181.84;7397264;19;20949;-92
2023/10/14 10:41:53;;;;;;;2.13;1.53;;;;;;;12.68;100.00;95270.16;7399094;19;20398;-92
2023/10/14 10:44:24;;;;;;;2.50;1.60;;;;;;;12.19;100.00;95202.31;7397844;19;20901;-92
2023/10/14 10:46:58;;;;;;;1.67;1.43;;;;;;;11.18;100.00;95125.50;7422795;19;20381;-92
2023/10/14 10:49:59;;;;;;;1.23;1.13;;;;;;;13.10;100.00;95433.56;7427914;19;20442;-92
2023/10/14 10:52:28;;;;;;;2.67;1.40;;;;;;;10.81;100.00;95077.03;7426820;19;20381;-91
2023/10/14 10:54:58;;;;;;;1.43;1.27;;;;;;;11.76;100.00;95283.91;7419791;19;20899;-92
2023/10/14 10:57:25;;;;;;;1.40;1.20;;;;;;;10.98;100.00;95178.88;7404494;19;20385;-91
2023/10/14 10:59:55;;;;;;;2.70;1.40;;;;;;;11.36;100.00;95254.63;7410918;19;20376;-91
2023/10/14 11:02:29;;;;;;;1.57;1.43;;;;;;;11.37;100.00;95286.03;7408937;19;20400;-92
2023/10/14 11:04:57;;;;;;;1.17;1.07;;;;;;;10.15;100.00;95131.91;7402641;19;20401;-92
2023/10/14 11:07:26;;;;;;;0.93;0.90;;;;;;;12.23;100.00;95451.44;7404154;19;20389;-91
2023/10/14 11:09:56;;;;;;;1.00;0.90;;;;;;;10.97;100.00;95268.03;7402324;19;20452;-92
2023/10/14 11:12:26;;;;;;;1.43;1.33;;;;;;;11.10;100.00;95305.66;7403391;19;20384;-91
2023/10/14 11:14:58;;;;;;;1.20;1.10;;;;;;;10.46;100.00;95207.56;7401724;19;20395;-91
2023/10/14 11:17:37;;;;;;;0.80;0.70;;;;;;;10.19;100.00;95177.63;7402126;19;20396;-91
2023/10/14 11:20:05;;;;;;;0.80;0.70;;;;;;;10.46;100.00;95243.78;7402116;19;20384;-91
2023/10/14 11:22:33;;;;;;;0.90;0.80;;;;;;;10.68;100.00;95271.31;7398815;19;20425;-91
2023/10/14 11:25:00;;;;;;;1.70;1.60;;;;;;;10.51;100.00;95248.75;7402200;19;20392;-92
2023/10/14 11:27:30;;;;;;;1.10;1.00;;;;;;;10.04;100.00;95208.31;7400735;19;20739;-92
2023/10/14 11:29:57;;;;;;;1.30;1.20;;;;;;;10.56;100.00;95285.50;7403333;19;20388;-92
2023/10/14 11:32:26;;;;;;;1.20;1.10;;;;;;;10.42;100.00;95249.00;7400165;19;20416;-92
2023/10/14 11:34:55;;;;;;;1.17;1.00;;;;;;;10.48;100.00;95281.94;7396635;19;20408;-91
2023/10/14 11:37:26;;;;;;;1.57;0.87;;;;;;;9.40;100.00;95117.38;7397481;19;20396;-91
2023/10/14 11:39:53;;;;;;;1.63;1.03;;;;;;;9.91;100.00;95214.84;7397657;19;20398;-91
2023/10/14 11:42:21;;;;;;;1.37;1.00;;;;;;;11.38;100.00;95395.28;7396239;19;20404;-92
2023/10/14 11:44:50;;;;;;;2.00;1.13;;;;;;;9.59;100.00;95139.56;7404046;19;20380;-92
2023/10/14 11:47:17;;;;;;;1.93;0.93;;;;;;;10.09;100.00;95254.78;7402617;19;20453;-92
2023/10/14 11:49:46;;;;;;;2.57;1.10;;;;;;;10.53;100.00;95270.31;7403190;19;20408;-92
2023/10/14 11:52:14;;;;;;;1.93;1.13;;;;;;;10.61;100.00;95271.97;7405462;19;20417;-92
2023/10/14 11:54:41;;;;;;;1.40;1.30;;;;;;;9.75;100.00;95119.91;7406363;19;20408;-92
2023/10/14 11:57:09;;;;;;;1.40;1.20;;;;;;;11.10;100.00;95313.59;7411707;19;20400;-92
2023/10/14 11:59:38;;;;;;;3.57;1.30;;;;;;;10.68;100.00;95258.88;7405932;19;20424;-92
2023/10/14 12:02:05;;;;;;;1.10;1.00;;;;;;;10.91;100.00;95319.69;7403180;19;20914;-92
2023/10/14 12:04:36;;;;;;;1.23;1.13;;;;;;;10.67;100.00;95265.28;7412548;19;20384;-92
2023/10/14 12:07:05;;;;;;;1.53;1.43;;;;;;;9.52;100.00;95116.47;7405920;19;20377;-92
2023/10/14 12:34:22;;;;;;;1.90;1.00;;;;;;;10.98;100.00;95313.75;7424748;19;20376;-92
2023/10/14 12:36:52;;;;;;;2.13;1.40;;;;;;;11.55;100.00;95368.34;7414525;19;20405;-92
2023/10/14 12:39:21;;;;;;;5.13;1.40;;;;;;;11.72;100.00;95375.00;7394079;19;20411;-91
2023/10/14 12:41:53;;;;;;;1.63;1.20;;;;;;;10.74;100.00;95224.97;7395799;19;20463;-91
2023/10/14 12:44:23;;;;;;;1.83;1.33;;;;;;;10.87;100.00;95260.69;7401863;19;20411;-91
2023/10/14 12:46:51;;;;;;;2.50;1.60;;;;;;;11.45;100.00;95342.47;7399724;19;20392;-91
2023/10/14 12:49:18;;;;;;;2.47;2.27;;;;;;;9.97;100.00;95109.72;7400263;19;20923;-91
2023/10/14 12:51:46;;;;;;;2.40;1.23;;;;;;;11.38;100.00;95324.59;7399332;19;20407;-91
2023/10/14 12:54:17;;;;;;;2.03;1.40;;;;;;;11.88;100.00;95398.72;7399210;19;20411;-91
2023/10/14 12:56:45;;;;;;;2.63;1.90;;;;;;;11.08;100.00;95262.91;7398831;19;20917;-91
2023/10/14 12:59:14;;;;;;;2.03;1.20;;;;;;;11.64;100.00;95376.81;7398984;19;20405;-91
2023/10/14 13:01:58;;;;;;;1.50;1.40;;;;;;;11.87;100.00;95368.81;7398726;19;20412;-91
2023/10/14 13:04:29;;;;;;;2.13;1.27;;;;;;;11.46;100.00;95291.81;7402134;19;20396;-91
2023/10/14 13:06:57;;;;;;;1.43;1.33;;;;;;;10.77;100.00;95171.41;7400506;19;20373;-91
2023/10/14 13:09:27;;;;;;;2.10;1.67;;;;;;;11.21;100.00;95261.56;7397387;19;20417;-91
2023/10/14 13:11:57;;;;;;;1.70;1.60;;;;;;;11.27;100.00;95265.47;7400635;19;20384;-91
2023/10/14 13:14:27;;;;;;;2.33;1.60;;;;;;;11.03;100.00;95255.28;7399285;19;20385;-91
2023/10/14 13:16:59;;;;;;;2.07;1.87;;;;;;;10.06;100.00;95097.06;7401661;19;20384;-91
2023/10/14 13:19:34;;;;;;;3.73;3.43;;;;;;;11.54;100.00;95301.38;7399737;19;20422;-91
2023/10/14 13:22:14;;;;;;;3.77;3.47;;;;;;;11.21;100.00;95270.28;7399536;19;20388;-91
2023/10/14 13:24:49;;;;;;;3.77;3.37;;;;;;;10.48;100.00;95165.69;7401173;19;20917;-91
2023/10/14 13:27:17;;;;;;;3.73;3.07;;;;;;;12.06;100.00;95391.78;7397311;19;20396;-91
2023/10/14 13:29:44;;;;;;;2.63;2.43;;;;;;;11.55;100.00;95307.44;7396798;19;20500;-91
2023/10/14 13:32:14;;;;;;;2.60;2.40;;;;;;;11.59;100.00;95324.13;7397288;19;20464;-91
2023/10/14 13:34:41;;;;;;;1.93;1.83;;;;;;;12.19;100.00;95395.75;7398562;19;20388;-90
2023/10/14 13:37:09;;;;;;;1.93;1.60;;;;;;;10.83;100.00;95210.41;7398261;19;20403;-91
2023/10/14 13:39:36;;;;;;;3.40;2.07;;;;;;;11.67;100.00;95352.25;7398062;19;20425;-90
2023/10/14 13:42:05;;;;;;;1.90;1.80;;;;;;;11.49;100.00;95322.13;7397199;19;20962;-90
2023/10/14 13:44:37;;;;;;;2.13;1.93;;;;;;;11.25;100.00;95297.56;7400209;19;20408;-90
2023/10/14 13:47:04;;;;;;;1.90;1.67;;;;;;;11.00;100.00;95250.69;7398249;19;20388;-90
2023/10/14 13:49:33;;;;;;;2.43;1.70;;;;;;;11.03;100.00;95247.34;7400462;19;20389;-91
2023/10/14 13:52:03;;;;;;;3.23;2.93;;;;;;;11.58;100.00;95329.78;7398383;19;20426;-90
2023/10/14 13:54:32;;;;;;;2.70;2.50;;;;;;;11.92;100.00;95384.41;7400100;19;20855;-90
2023/10/14 13:57:00;;;;;;;3.40;3.20;;;;;;;11.22;100.00;95276.38;7399578;19;20391;-90
2023/10/14 13:59:27;;;;;;;7.43;6.67;;;;;;;10.21;100.00;95133.16;7398788;19;20749;-91
2023/10/14 14:01:54;;;;;;;3.83;3.53;;;;;;;11.50;100.00;95310.41;7399572;19;20401;-90
2023/10/14 14:04:22;;;;;;;7.23;6.63;;;;;;;11.21;100.00;95280.09;7402283;19;20381;-91
2023/10/14 14:06:49;;;;;;;2.37;1.97;;;;;;;10.07;100.00;95167.22;7398367;19;20389;-91
2023/10/14 14:09:21;;;;;;;1.33;1.23;;;;;;;11.68;100.00;95404.09;7398942;19;20458;-90
2023/10/14 14:11:55;;;;;;;2.80;1.30;;;;;;;10.50;100.00;95236.66;7399227;19;20398;-91
2023/10/14 14:14:24;;;;;;;1.30;1.20;;;;;;;11.00;100.00;95301.72;7396643;19;20448;-90
2023/10/14 14:16:52;;;;;;;2.80;2.00;;;;;;;11.62;100.00;95396.78;7398165;19;20393;-91
2023/10/14 14:19:20;;;;;;;2.43;2.23;;;;;;;11.44;100.00;95349.63;7394358;19;20428;-91
2023/10/14 14:21:47;;;;;;;2.80;2.40;;;;;;;11.22;100.00;95351.22;7397607;19;20552;-91
2023/10/14 14:24:15;;;;;;;2.80;2.30;;;;;;;11.44;100.00;95388.56;7396926;19;20381;-91
2023/10/14 14:26:42;;;;;;;2.23;2.10;;;;;;;10.13;100.00;95241.63;7398181;19;20441;-91
2023/10/14 14:29:11;;;;;;;1.80;1.70;;;;;;;10.64;100.00;95337.34;7396459;19;20420;-91
2023/10/14 14:31:39;;;;;;;1.60;1.50;;;;;;;10.75;100.00;95350.75;7396789;19;20409;-91
2023/10/14 14:34:08;;;;;;;3.87;1.37;;;;;;;10.89;100.00;95314.00;7395545;19;20740;-90
2023/10/14 14:36:35;;;;;;;1.40;1.30;;;;;;;11.10;100.00;95342.69;7398295;19;20384;-91
2023/10/14 14:39:02;;;;;;;1.43;1.33;;;;;;;11.65;100.00;95394.22;7393840;19;21013;-90
2023/10/14 14:41:29;;;;;;;1.63;1.50;;;;;;;11.65;100.00;95314.03;7397056;19;20396;-91
2023/10/14 14:43:57;;;;;;;2.33;1.03;;;;;;;12.86;100.00;95376.44;7395282;19;21217;-91
2023/10/14 14:46:25;;;;;;;3.37;2.70;;;;;;;12.45;100.00;95362.38;7396727;19;20381;-90
2023/10/14 14:48:52;;;;;;;1.20;1.10;;;;;;;11.67;100.00;95346.97;7398912;19;20423;-89
2023/10/14 14:51:19;;;;;;;2.20;1.17;;;;;;;10.83;100.00;95258.00;7403410;19;20389;-88
2023/10/14 14:53:46;;;;;;;2.20;1.50;;;;;;;11.61;100.00;95419.84;7398563;19;20380;-89
2023/10/14 14:56:14;;;;;;;1.53;1.23;;;;;;;11.86;100.00;95475.88;7395540;19;20473;-89
2023/10/14 14:58:41;;;;;;;2.47;1.20;;;;;;;11.84;100.00;95470.19;7396958;19;20558;-89
2023/10/14 15:01:19;;;;;;;1.40;1.30;;;;;;;11.61;100.00;95474.69;7400055;19;20381;-89
2023/10/14 15:03:46;;;;;;;1.53;1.43;;;;;;;11.60;100.00;95473.16;7398433;19;20388;-88
2023/10/14 15:06:14;;;;;;;3.43;2.57;;;;;;;11.27;100.00;95455.22;7396553;19;20385;-89
2023/10/14 15:08:41;;;;;;;2.20;1.77;;;;;;;10.97;100.00;95405.56;7393318;19;20455;-91
2023/10/14 15:11:09;;;;;;;2.30;1.30;;;;;;;10.65;100.00;95394.38;7393792;19;20710;-91
2023/10/14 15:13:36;;;;;;;2.07;1.33;;;;;;;10.56;100.00;95391.97;7394519;19;20397;-90
2023/10/14 15:16:04;;;;;;;1.60;1.50;;;;;;;10.76;100.00;95452.75;7394989;19;20393;-91
2023/10/14 15:18:32;;;;;;;1.10;1.00;;;;;;;10.05;100.00;95346.38;7400882;19;20428;-91
2023/10/14 15:20:59;;;;;;;3.00;1.43;;;;;;;10.72;100.00;95425.50;7398289;19;20388;-91
2023/10/14 15:23:26;;;;;;;3.70;1.53;;;;;;;10.00;100.00;95322.88;7396639;19;20390;-91
2023/10/14 15:25:55;;;;;;;1.40;1.30;;;;;;;10.91;100.00;95486.28;7400401;19;20794;-91
2023/10/14 15:28:22;;;;;;;1.20;1.10;;;;;;;11.28;100.00;95538.78;7401264;19;20483;-91
2023/10/14 15:30:49;;;;;;;2.63;1.30;;;;;;;10.19;100.00;95359.13;7400354;19;21009;-91
2023/10/14 15:33:16;;;;;;;1.87;1.47;;;;;;;10.17;100.00;95353.41;7402064;19;20389;-90
2023/10/14 15:35:43;;;;;;;4.50;1.90;;;;;;;10.40;100.00;95372.00;7399922;19;21012;-92
2023/10/14 15:38:13;;;;;;;1.80;1.53;;;;;;;10.38;100.00;95416.50;7400696;19;20428;-92
2023/10/14 15:40:47;;;;;;;2.33;1.50;;;;;;;10.96;100.00;95515.13;7401338;19;20372;-91
2023/10/14 15:43:14;;;;;;;2.53;1.57;;;;;;;10.34;100.00;95432.28;7399598;19;20934;-91
2023/10/14 15:45:41;;;;;;;3.60;1.73;;;;;;;10.98;100.00;95512.88;7401371;19;20447;-90
2023/10/14 15:48:11;;;;;;;2.97;1.80;;;;;;;10.61;100.00;95492.13;7398723;19;20400;-90
2023/10/14 15:50:43;;;;;;;2.67;2.23;;;;;;;10.38;100.00;95442.94;7400689;19;20388;-92
2023/10/14 15:53:12;;;;;;;2.30;2.10;;;;;;;10.48;100.00;95487.31;7402334;19;20392;-91
2023/10/14 15:55:41;;;;;;;2.10;1.90;;;;;;;9.57;100.00;95366.09;7401825;19;20392;-91
2023/10/14 15:58:10;;;;;;;2.07;1.87;;;;;;;9.61;100.00;95364.28;7399986;19;20429;-91
2023/10/14 16:00:47;;;;;;;1.53;1.37;;;;;;;10.06;100.00;95464.88;7415771;19;20372;-91
2023/10/14 16:03:19;;;;;;;11.83;2.40;;;;;;;9.82;100.00;95387.75;7426938;19;20396;-90
2023/10/14 16:05:47;;;;;;;2.97;2.07;;;;;;;9.18;100.00;95369.34;7422595;19;20464;-90
2023/10/14 16:08:14;;;;;;;4.23;2.30;;;;;;;10.56;100.00;95557.72;7397602;19;20432;-91
2023/10/14 16:10:44;;;;;;;2.30;2.10;;;;;;;10.27;100.00;95537.78;7402399;19;20369;-91
2023/10/14 16:13:14;;;;;;;6.23;2.20;;;;;;;9.13;100.00;95408.38;7400496;19;20400;-91
2023/10/14 16:15:43;;;;;;;2.20;1.97;;;;;;;8.70;100.00;95351.97;7400803;19;20936;-90
2023/10/14 16:18:11;;;;;;;4.57;1.83;;;;;;;9.97;100.00;95545.38;7399688;19;20456;-91
2023/10/14 16:20:39;;;;;;;2.60;2.00;;;;;;;10.40;100.00;95575.47;7401797;19;20389;-91
2023/10/14 16:23:07;;;;;;;5.07;2.17;;;;;;;8.53;100.00;95349.59;7399908;19;20389;-90
2023/10/14 16:25:34;;;;;;;9.77;5.80;;;;;;;8.34;100.00;95358.16;7402782;19;20393;-91
2023/10/14 16:28:02;;;;;;;5.43;3.70;;;;;;;8.97;100.00;95434.72;7398235;19;20460;-92
2023/10/14 16:30:30;;;;;;;4.50;3.00;;;;;;;9.72;100.00;95545.53;7402527;19;20407;-91
2023/10/14 16:32:58;;;;;;;5.67;3.03;;;;;;;10.01;100.00;95597.16;7401044;19;20842;-91
2023/10/14 16:35:30;;;;;;;3.67;2.10;;;;;;;8.50;100.00;95382.66;7399514;19;20792;-92
2023/10/14 16:38:01;;;;;;;3.37;2.30;;;;;;;8.71;100.00;95463.41;7399407;19;20432;-91
2023/10/14 16:40:28;;;;;;;3.30;2.00;;;;;;;8.21;100.00;95389.00;7399299;19;20413;-91
2023/10/14 16:42:58;;;;;;;2.80;1.70;;;;;;;8.35;100.00;95436.06;7400235;19;20435;-90
2023/10/14 16:45:26;;;;;;;4.30;2.20;;;;;;;8.08;100.00;95418.31;7400240;19;20410;-91
2023/10/14 16:48:00;;;;;;;3.23;2.10;;;;;;;8.75;100.00;95482.69;7401369;19;20807;-91
2023/10/14 16:50:30;;;;;;;3.10;2.07;;;;;;;8.48;100.00;95492.09;7400084;19;20905;-91
2023/10/14 16:52:58;;;;;;;4.07;2.70;;;;;;;9.31;100.00;95596.84;7400494;19;20388;-90
2023/10/14 16:55:25;;;;;;;6.80;3.27;;;;;;;8.94;100.00;95526.88;7399362;19;20749;-90
2023/10/14 16:57:58;;;;;;;3.23;2.80;;;;;;;8.32;100.00;95441.97;7423022;19;20444;-91
2023/10/14 17:00:33;;;;;;;6.30;3.67;;;;;;;8.90;100.00;95526.78;7424500;19;20397;-90
2023/10/14 17:03:02;;;;;;;7.93;3.20;;;;;;;9.32;100.00;95602.91;7423845;19;20404;-91
2023/10/14 17:05:30;;;;;;;6.10;4.50;;;;;;;9.32;100.00;95589.72;7406351;19;20389;-91
2023/10/14 17:08:03;;;;;;;13.97;8.00;;;;;;;10.10;100.00;95723.03;7405497;19;20381;-90
2023/10/14 17:10:35;;;;;;;12.63;9.77;;;;;;;8.87;100.00;95580.19;7407218;19;20396;-92
2023/10/14 17:13:05;;;;;;;15.00;12.17;;;;;;;9.27;100.00;95690.97;7399978;19;20389;-91
2023/10/14 17:15:33;;;;;;;25.23;19.30;;;;;;;9.19;100.00;95671.50;7399435;19;20444;-91
2023/10/14 17:18:02;;;;;;;27.63;23.90;;;;;;;8.46;100.00;95536.44;7397280;19;20758;-91
2023/10/14 17:20:30;;;;;;;22.53;20.27;;;;;;;7.77;100.00;95434.69;7402226;19;20403;-91
2023/10/14 17:23:00;;;;;;;23.40;19.43;;;;;;;9.39;100.00;95704.13;7399402;19;20460;-92
2023/10/14 17:25:31;;;;;;;20.57;16.23;;;;;;;8.34;100.00;95534.59;7400247;19;20388;-93
2023/10/14 17:28:21;;;;;;;16.80;11.90;;;;;;;9.85;100.00;95770.63;7398384;19;20436;-92
2023/10/14 17:31:16;;;;;;;13.70;7.67;;;;;;;7.31;100.00;95421.59;7399878;19;20377;-93
2023/10/14 17:34:10;;;;;;;8.03;6.80;;;;;;;8.13;100.00;95571.53;7399676;19;20467;-92
2023/10/14 17:36:56;;;;;;;8.20;7.10;;;;;;;9.26;100.00;95760.63;7399877;19;20401;-91
2023/10/14 17:39:54;;;;;;;7.07;6.47;;;;;;;8.15;100.00;95619.38;7403455;19;20381;-92
2023/10/14 17:42:40;;;;;;;11.07;6.90;;;;;;;6.51;100.00;95395.69;7399676;19;20377;-92
2023/10/14 17:45:18;;;;;;;8.60;6.43;;;;;;;7.05;100.00;95492.84;7397316;19;20471;-92
2023/10/14 17:47:50;;;;;;;9.47;6.90;;;;;;;6.77;100.00;95423.56;7398792;19;20439;-91
2023/10/14 17:50:47;;;;;;;9.20;5.80;;;;;;;6.78;100.00;95428.50;7397198;19;20381;-92
2023/10/14 17:53:49;;;;;;;6.13;4.30;;;;;;;8.17;100.00;95666.44;7397850;19;20456;-92
2023/10/14 17:56:24;;;;;;;5.60;4.43;;;;;;;7.25;100.00;95540.47;7399651;19;20400;-92
2023/10/14 17:59:16;;;;;;;8.60;4.20;;;;;;;6.94;100.00;95523.25;7397044;19;20415;-92
2023/10/14 18:02:18;;;;;;;4.83;3.07;;;;;;;6.55;100.00;95476.47;7396880;19;20440;-91
2023/10/14 18:05:08;;;;;;;;;;;;;;;;;;;;;
2023/10/14 18:08:41;;;;;;;8.37;3.70;;;;;;;6.17;100.00;95458.97;7399320;19;20425;-91
2023/10/14 18:12:07;;;;;;;4.10;3.70;;;;;;;7.02;100.00;95593.38;7395502;19;20407;-92
2023/10/14 18:15:13;;;;;;;8.50;5.30;;;;;;;6.29;100.00;95495.78;7394257;19;20408;-92
2023/10/14 19:18:08;;;;;;;6.90;5.70;;;;;;;6.67;100.00;95796.94;7412084;19;20885;-92
2023/10/14 20:17:59;;;;;;;4.50;3.03;;;;;;;4.30;100.00;95582.59;7396809;19;20383;-91
2023/10/14 20:22:00;;;;;;;;;;;;;;;;;;;;;
2023/10/14 20:28:52;;;;;;;4.00;3.30;;;;;;;6.32;100.00;95954.53;7398956;19;20406;-91
2023/10/14 20:36:07;;;;;;;7.93;3.80;;;;;;;6.23;100.00;95972.88;7402817;19;20352;-91
2023/10/14 20:49:36;;;;;;;3.43;2.80;;;;;;;6.02;100.00;95971.16;7405575;19;20512;-93
2023/10/14 20:52:15;;;;;;;8.87;3.47;;;;;;;5.84;100.00;95965.81;7402955;19;20380;-93
2023/10/14 20:54:48;;;;;;;3.13;2.83;;;;;;;5.78;100.00;95969.66;7401472;19;20380;-93
2023/10/14 20:57:32;;;;;;;5.83;2.80;;;;;;;4.77;100.00;95815.09;7403838;19;20401;-93
2023/10/14 21:00:16;;;;;;;4.27;3.97;;;;;;;5.71;100.00;95974.56;7416794;19;20372;-93
2023/10/14 21:30:04;;;;;;;9.43;4.30;;;;;;;1.84;100.00;95594.72;7396390;19;20428;-90
2023/10/14 22:01:53;;;;;;;4.20;3.80;;;;;;;2.14;100.00;95641.09;7398253;19;20368;-89
2023/10/14 22:05:07;;;;;;;6.07;4.30;;;;;;;2.10;100.00;95631.50;7397289;19;20396;-90
2023/10/14 22:07:39;;;;;;;4.93;3.57;;;;;;;1.96;100.00;95649.75;7396911;19;20404;-91